sensor_id;sensor_type;location;lat;lon;timestamp;temperature;humidity
9446;DHT22;4761;49.490;10.908;2022-07-09T00:02:16;24.00;51.70
9446;DHT22;4761;49.490;10.908;2022-07-09T00:04:42;24.00;51.70
9446;DHT22;4761;49.490;10.908;2022-07-09T00:07:07;24.00;51.80
9446;DHT22;4761;49.490;10.908;2022-07-09T00:09:33;24.00;51.70
9446;DHT22;4761;49.490;10.908;2022-07-09T00:11:58;24.00;51.70
9446;DHT22;4761;49.490;10.908;2022-07-09T00:14:24;24.10;51.80
9446;DHT22;4761;49.490;10.908;2022-07-09T00:16:49;24.00;51.80
9446;DHT22;4761;49.490;10.908;2022-07-09T00:19:15;24.00;51.70
9446;DHT22;4761;49.490;10.908;2022-07-09T00:21:40;24.00;51.70
9446;DHT22;4761;49.490;10.908;2022-07-09T00:24:06;24.00;51.70
9446;DHT22;4761;49.490;10.908;2022-07-09T00:26:32;24.00;51.70
9446;DHT22;4761;49.490;10.908;2022-07-09T00:28:57;24.00;51.70
9446;DHT22;4761;49.490;10.908;2022-07-09T00:31:23;24.00;51.70
9446;DHT22;4761;49.490;10.908;2022-07-09T00:33:48;24.00;51.70
9446;DHT22;4761;49.490;10.908;2022-07-09T00:36:15;24.00;51.60
9446;DHT22;4761;49.490;10.908;2022-07-09T00:38:40;24.00;51.60
9446;DHT22;4761;49.490;10.908;2022-07-09T00:41:06;24.00;51.60
9446;DHT22;4761;49.490;10.908;2022-07-09T00:43:31;24.00;51.60
9446;DHT22;4761;49.490;10.908;2022-07-09T00:45:57;24.00;51.60
9446;DHT22;4761;49.490;10.908;2022-07-09T00:48:23;24.00;51.70
9446;DHT22;4761;49.490;10.908;2022-07-09T00:50:49;24.00;51.70
9446;DHT22;4761;49.490;10.908;2022-07-09T00:53:21;24.00;51.60
9446;DHT22;4761;49.490;10.908;2022-07-09T00:55:48;24.00;51.60
9446;DHT22;4761;49.490;10.908;2022-07-09T00:58:16;24.00;51.60
9446;DHT22;4761;49.490;10.908;2022-07-09T01:00:43;24.00;51.60
9446;DHT22;4761;49.490;10.908;2022-07-09T01:03:09;24.00;51.60
9446;DHT22;4761;49.490;10.908;2022-07-09T01:05:35;23.90;51.50
9446;DHT22;4761;49.490;10.908;2022-07-09T01:08:05;24.00;51.50
9446;DHT22;4761;49.490;10.908;2022-07-09T01:10:31;24.00;51.50
9446;DHT22;4761;49.490;10.908;2022-07-09T01:12:58;23.90;51.40
9446;DHT22;4761;49.490;10.908;2022-07-09T01:15:23;23.90;51.40
9446;DHT22;4761;49.490;10.908;2022-07-09T01:17:49;23.90;51.50
9446;DHT22;4761;49.490;10.908;2022-07-09T01:20:21;23.90;51.50
9446;DHT22;4761;49.490;10.908;2022-07-09T01:22:47;23.90;51.40
9446;DHT22;4761;49.490;10.908;2022-07-09T01:25:16;23.90;51.40
9446;DHT22;4761;49.490;10.908;2022-07-09T01:27:42;23.90;51.40
9446;DHT22;4761;49.490;10.908;2022-07-09T01:30:07;23.90;51.50
9446;DHT22;4761;49.490;10.908;2022-07-09T01:32:33;23.90;51.40
9446;DHT22;4761;49.490;10.908;2022-07-09T01:34:59;23.90;51.50
9446;DHT22;4761;49.490;10.908;2022-07-09T01:37:24;23.90;51.50
9446;DHT22;4761;49.490;10.908;2022-07-09T01:39:50;23.90;51.50
9446;DHT22;4761;49.490;10.908;2022-07-09T01:42:19;23.90;51.50
9446;DHT22;4761;49.490;10.908;2022-07-09T01:44:45;23.90;51.50
9446;DHT22;4761;49.490;10.908;2022-07-09T01:47:11;23.90;51.50
9446;DHT22;4761;49.490;10.908;2022-07-09T01:49:37;23.90;51.50
9446;DHT22;4761;49.490;10.908;2022-07-09T01:52:04;23.90;51.50
9446;DHT22;4761;49.490;10.908;2022-07-09T01:54:29;23.90;51.50
9446;DHT22;4761;49.490;10.908;2022-07-09T01:56:55;23.90;51.50
9446;DHT22;4761;49.490;10.908;2022-07-09T01:59:20;23.90;51.50
9446;DHT22;4761;49.490;10.908;2022-07-09T02:01:46;23.90;51.50
9446;DHT22;4761;49.490;10.908;2022-07-09T02:04:12;23.90;51.50
9446;DHT22;4761;49.490;10.908;2022-07-09T02:06:38;23.90;51.50
9446;DHT22;4761;49.490;10.908;2022-07-09T02:09:03;23.90;51.50
9446;DHT22;4761;49.490;10.908;2022-07-09T02:11:29;23.90;51.40
9446;DHT22;4761;49.490;10.908;2022-07-09T02:13:54;23.90;51.40
9446;DHT22;4761;49.490;10.908;2022-07-09T02:16:20;23.90;51.40
9446;DHT22;4761;49.490;10.908;2022-07-09T02:18:45;23.90;51.40
9446;DHT22;4761;49.490;10.908;2022-07-09T02:21:11;23.80;51.30
9446;DHT22;4761;49.490;10.908;2022-07-09T02:23:37;23.90;51.40
9446;DHT22;4761;49.490;10.908;2022-07-09T02:26:02;23.90;51.40
9446;DHT22;4761;49.490;10.908;2022-07-09T02:28:28;23.90;51.40
9446;DHT22;4761;49.490;10.908;2022-07-09T02:30:54;23.90;51.50
9446;DHT22;4761;49.490;10.908;2022-07-09T02:33:20;23.90;51.40
9446;DHT22;4761;49.490;10.908;2022-07-09T02:35:46;23.90;51.40
9446;DHT22;4761;49.490;10.908;2022-07-09T02:38:11;23.90;51.40
9446;DHT22;4761;49.490;10.908;2022-07-09T02:40:37;23.90;51.40
9446;DHT22;4761;49.490;10.908;2022-07-09T02:43:02;23.90;51.50
9446;DHT22;4761;49.490;10.908;2022-07-09T02:45:28;23.90;51.40
9446;DHT22;4761;49.490;10.908;2022-07-09T02:47:53;23.90;51.40
9446;DHT22;4761;49.490;10.908;2022-07-09T02:50:19;23.90;51.50
9446;DHT22;4761;49.490;10.908;2022-07-09T02:52:45;23.80;51.40
9446;DHT22;4761;49.490;10.908;2022-07-09T02:55:10;23.90;51.40
9446;DHT22;4761;49.490;10.908;2022-07-09T02:57:36;23.90;51.40
9446;DHT22;4761;49.490;10.908;2022-07-09T03:00:02;23.80;51.40
9446;DHT22;4761;49.490;10.908;2022-07-09T03:02:28;23.90;51.50
9446;DHT22;4761;49.490;10.908;2022-07-09T03:04:54;23.90;51.50
9446;DHT22;4761;49.490;10.908;2022-07-09T03:07:19;23.90;51.50
9446;DHT22;4761;49.490;10.908;2022-07-09T03:09:45;23.90;51.50
9446;DHT22;4761;49.490;10.908;2022-07-09T03:12:10;23.90;51.50
9446;DHT22;4761;49.490;10.908;2022-07-09T03:14:36;23.90;52.10
9446;DHT22;4761;49.490;10.908;2022-07-09T03:17:01;23.90;51.40
9446;DHT22;4761;49.490;10.908;2022-07-09T03:19:27;23.90;51.30
9446;DHT22;4761;49.490;10.908;2022-07-09T03:21:53;23.90;51.40
9446;DHT22;4761;49.490;10.908;2022-07-09T03:24:18;23.90;51.40
9446;DHT22;4761;49.490;10.908;2022-07-09T03:26:44;23.90;51.30
9446;DHT22;4761;49.490;10.908;2022-07-09T03:29:09;23.90;51.30
9446;DHT22;4761;49.490;10.908;2022-07-09T03:31:35;23.90;51.30
9446;DHT22;4761;49.490;10.908;2022-07-09T03:34:00;23.90;51.30
9446;DHT22;4761;49.490;10.908;2022-07-09T03:36:26;23.90;51.40
9446;DHT22;4761;49.490;10.908;2022-07-09T03:38:52;23.90;51.40
9446;DHT22;4761;49.490;10.908;2022-07-09T03:41:17;23.90;51.40
9446;DHT22;4761;49.490;10.908;2022-07-09T03:43:43;23.90;51.40
9446;DHT22;4761;49.490;10.908;2022-07-09T03:46:09;23.90;51.40
9446;DHT22;4761;49.490;10.908;2022-07-09T03:48:34;23.80;51.30
9446;DHT22;4761;49.490;10.908;2022-07-09T03:51:00;23.90;51.40
9446;DHT22;4761;49.490;10.908;2022-07-09T03:53:25;23.80;51.40
9446;DHT22;4761;49.490;10.908;2022-07-09T03:55:51;23.80;51.40
9446;DHT22;4761;49.490;10.908;2022-07-09T03:58:16;23.80;51.30
9446;DHT22;4761;49.490;10.908;2022-07-09T04:00:42;23.90;51.40
9446;DHT22;4761;49.490;10.908;2022-07-09T04:03:08;23.80;51.70
9446;DHT22;4761;49.490;10.908;2022-07-09T04:05:33;23.80;51.30
9446;DHT22;4761;49.490;10.908;2022-07-09T04:07:59;23.80;51.40
9446;DHT22;4761;49.490;10.908;2022-07-09T04:10:24;23.90;51.40
9446;DHT22;4761;49.490;10.908;2022-07-09T04:12:50;23.80;51.40
9446;DHT22;4761;49.490;10.908;2022-07-09T04:15:15;23.80;51.40
9446;DHT22;4761;49.490;10.908;2022-07-09T04:17:41;23.80;51.30
9446;DHT22;4761;49.490;10.908;2022-07-09T04:20:07;23.80;51.40
9446;DHT22;4761;49.490;10.908;2022-07-09T04:22:32;23.90;52.00
9446;DHT22;4761;49.490;10.908;2022-07-09T04:24:58;23.80;51.40
9446;DHT22;4761;49.490;10.908;2022-07-09T04:27:24;23.80;51.30
9446;DHT22;4761;49.490;10.908;2022-07-09T04:29:50;23.80;51.40
9446;DHT22;4761;49.490;10.908;2022-07-09T04:32:15;23.80;51.40
9446;DHT22;4761;49.490;10.908;2022-07-09T04:34:41;23.80;51.40
9446;DHT22;4761;49.490;10.908;2022-07-09T04:37:07;23.80;51.40
9446;DHT22;4761;49.490;10.908;2022-07-09T04:39:33;23.80;51.40
9446;DHT22;4761;49.490;10.908;2022-07-09T04:41:58;23.80;51.40
9446;DHT22;4761;49.490;10.908;2022-07-09T04:44:24;23.80;51.50
9446;DHT22;4761;49.490;10.908;2022-07-09T04:46:49;23.80;51.50
9446;DHT22;4761;49.490;10.908;2022-07-09T04:49:15;23.80;51.50
9446;DHT22;4761;49.490;10.908;2022-07-09T04:51:40;23.80;51.50
9446;DHT22;4761;49.490;10.908;2022-07-09T04:54:06;23.80;51.60
9446;DHT22;4761;49.490;10.908;2022-07-09T04:56:32;23.80;51.50
9446;DHT22;4761;49.490;10.908;2022-07-09T04:58:57;23.80;51.50
9446;DHT22;4761;49.490;10.908;2022-07-09T05:01:25;23.80;51.50
9446;DHT22;4761;49.490;10.908;2022-07-09T05:03:52;23.80;51.50
9446;DHT22;4761;49.490;10.908;2022-07-09T05:06:19;23.90;51.60
9446;DHT22;4761;49.490;10.908;2022-07-09T05:08:45;23.90;51.50
9446;DHT22;4761;49.490;10.908;2022-07-09T05:11:12;23.90;51.50
9446;DHT22;4761;49.490;10.908;2022-07-09T05:13:38;23.80;51.40
9446;DHT22;4761;49.490;10.908;2022-07-09T05:16:08;23.90;51.50
9446;DHT22;4761;49.490;10.908;2022-07-09T05:18:34;23.90;51.50
9446;DHT22;4761;49.490;10.908;2022-07-09T05:20:59;23.90;51.50
9446;DHT22;4761;49.490;10.908;2022-07-09T05:23:25;23.90;51.50
9446;DHT22;4761;49.490;10.908;2022-07-09T05:25:51;23.90;51.50
9446;DHT22;4761;49.490;10.908;2022-07-09T05:28:16;23.90;51.50
9446;DHT22;4761;49.490;10.908;2022-07-09T05:30:42;23.90;51.50
9446;DHT22;4761;49.490;10.908;2022-07-09T05:33:07;23.90;51.40
9446;DHT22;4761;49.490;10.908;2022-07-09T05:35:33;23.90;51.40
9446;DHT22;4761;49.490;10.908;2022-07-09T05:37:59;23.90;51.40
9446;DHT22;4761;49.490;10.908;2022-07-09T05:40:25;23.90;51.40
9446;DHT22;4761;49.490;10.908;2022-07-09T05:42:50;23.90;51.50
9446;DHT22;4761;49.490;10.908;2022-07-09T05:45:16;23.90;51.40
9446;DHT22;4761;49.490;10.908;2022-07-09T05:47:41;23.90;51.50
9446;DHT22;4761;49.490;10.908;2022-07-09T05:50:07;23.90;51.50
9446;DHT22;4761;49.490;10.908;2022-07-09T05:52:33;23.90;51.50
9446;DHT22;4761;49.490;10.908;2022-07-09T05:54:58;23.90;51.50
9446;DHT22;4761;49.490;10.908;2022-07-09T05:57:24;23.90;51.50
9446;DHT22;4761;49.490;10.908;2022-07-09T05:59:50;23.90;51.50
9446;DHT22;4761;49.490;10.908;2022-07-09T06:02:19;23.90;51.50
9446;DHT22;4761;49.490;10.908;2022-07-09T06:04:44;23.90;51.50
9446;DHT22;4761;49.490;10.908;2022-07-09T06:07:10;23.90;51.50
9446;DHT22;4761;49.490;10.908;2022-07-09T06:09:36;23.90;51.50
9446;DHT22;4761;49.490;10.908;2022-07-09T06:12:02;23.90;51.50
9446;DHT22;4761;49.490;10.908;2022-07-09T06:14:27;23.90;51.50
9446;DHT22;4761;49.490;10.908;2022-07-09T06:16:53;23.90;51.50
9446;DHT22;4761;49.490;10.908;2022-07-09T06:19:20;23.90;51.50
9446;DHT22;4761;49.490;10.908;2022-07-09T06:21:46;23.90;51.50
9446;DHT22;4761;49.490;10.908;2022-07-09T06:24:12;23.90;51.50
9446;DHT22;4761;49.490;10.908;2022-07-09T06:26:37;23.90;51.50
9446;DHT22;4761;49.490;10.908;2022-07-09T06:29:03;23.90;51.50
9446;DHT22;4761;49.490;10.908;2022-07-09T06:31:29;23.90;51.50
9446;DHT22;4761;49.490;10.908;2022-07-09T06:33:54;24.00;51.60
9446;DHT22;4761;49.490;10.908;2022-07-09T06:36:20;24.00;51.50
9446;DHT22;4761;49.490;10.908;2022-07-09T06:38:45;23.90;51.50
9446;DHT22;4761;49.490;10.908;2022-07-09T06:41:32;24.00;51.60
9446;DHT22;4761;49.490;10.908;2022-07-09T06:43:57;24.00;51.60
9446;DHT22;4761;49.490;10.908;2022-07-09T06:46:23;24.00;51.60
9446;DHT22;4761;49.490;10.908;2022-07-09T06:48:48;24.00;51.60
9446;DHT22;4761;49.490;10.908;2022-07-09T06:51:14;24.00;51.60
9446;DHT22;4761;49.490;10.908;2022-07-09T06:53:39;24.00;51.50
9446;DHT22;4761;49.490;10.908;2022-07-09T06:56:05;24.00;51.50
9446;DHT22;4761;49.490;10.908;2022-07-09T06:58:31;24.00;51.50
9446;DHT22;4761;49.490;10.908;2022-07-09T07:00:56;24.00;51.50
9446;DHT22;4761;49.490;10.908;2022-07-09T07:03:22;24.10;51.60
9446;DHT22;4761;49.490;10.908;2022-07-09T07:05:47;24.10;51.60
9446;DHT22;4761;49.490;10.908;2022-07-09T07:08:13;24.00;51.50
9446;DHT22;4761;49.490;10.908;2022-07-09T07:10:39;24.00;51.50
9446;DHT22;4761;49.490;10.908;2022-07-09T07:13:04;24.10;51.60
9446;DHT22;4761;49.490;10.908;2022-07-09T07:15:30;24.10;51.60
9446;DHT22;4761;49.490;10.908;2022-07-09T07:17:55;24.10;51.60
9446;DHT22;4761;49.490;10.908;2022-07-09T07:20:21;24.10;51.50
9446;DHT22;4761;49.490;10.908;2022-07-09T07:22:50;24.10;51.50
9446;DHT22;4761;49.490;10.908;2022-07-09T07:25:16;24.10;51.50
9446;DHT22;4761;49.490;10.908;2022-07-09T07:27:41;24.10;51.40
9446;DHT22;4761;49.490;10.908;2022-07-09T07:30:07;24.20;51.50
9446;DHT22;4761;49.490;10.908;2022-07-09T07:32:33;24.10;51.40
9446;DHT22;4761;49.490;10.908;2022-07-09T07:34:58;24.10;52.00
9446;DHT22;4761;49.490;10.908;2022-07-09T07:37:24;24.20;51.50
9446;DHT22;4761;49.490;10.908;2022-07-09T07:39:49;24.20;51.40
9446;DHT22;4761;49.490;10.908;2022-07-09T07:42:15;24.20;51.40
9446;DHT22;4761;49.490;10.908;2022-07-09T07:44:42;24.20;51.40
9446;DHT22;4761;49.490;10.908;2022-07-09T07:47:07;24.20;51.70
9446;DHT22;4761;49.490;10.908;2022-07-09T07:49:33;24.20;51.20
9446;DHT22;4761;49.490;10.908;2022-07-09T07:51:59;24.20;51.30
9446;DHT22;4761;49.490;10.908;2022-07-09T07:54:24;24.20;51.20
9446;DHT22;4761;49.490;10.908;2022-07-09T07:56:50;24.20;51.20
9446;DHT22;4761;49.490;10.908;2022-07-09T07:59:16;24.20;51.20
9446;DHT22;4761;49.490;10.908;2022-07-09T08:01:42;24.20;51.20
9446;DHT22;4761;49.490;10.908;2022-07-09T08:04:08;24.20;51.10
9446;DHT22;4761;49.490;10.908;2022-07-09T08:06:34;24.20;51.10
9446;DHT22;4761;49.490;10.908;2022-07-09T08:09:01;24.20;51.10
9446;DHT22;4761;49.490;10.908;2022-07-09T08:11:27;24.30;51.10
9446;DHT22;4761;49.490;10.908;2022-07-09T08:13:53;24.30;51.30
9446;DHT22;4761;49.490;10.908;2022-07-09T08:16:18;24.30;51.20
9446;DHT22;4761;49.490;10.908;2022-07-09T08:18:45;24.10;51.10
9446;DHT22;4761;49.490;10.908;2022-07-09T08:21:11;24.10;51.20
9446;DHT22;4761;49.490;10.908;2022-07-09T08:23:36;24.10;51.10
9446;DHT22;4761;49.490;10.908;2022-07-09T08:26:18;24.10;51.00
9446;DHT22;4761;49.490;10.908;2022-07-09T08:28:43;24.20;50.90
9446;DHT22;4761;49.490;10.908;2022-07-09T08:31:09;24.20;51.00
9446;DHT22;4761;49.490;10.908;2022-07-09T08:33:35;24.30;50.90
9446;DHT22;4761;49.490;10.908;2022-07-09T08:36:00;24.30;50.90
9446;DHT22;4761;49.490;10.908;2022-07-09T08:38:26;24.30;50.90
9446;DHT22;4761;49.490;10.908;2022-07-09T08:40:52;24.30;50.80
9446;DHT22;4761;49.490;10.908;2022-07-09T08:43:18;24.30;51.00
9446;DHT22;4761;49.490;10.908;2022-07-09T08:45:45;24.30;51.10
9446;DHT22;4761;49.490;10.908;2022-07-09T08:48:12;24.30;50.90
9446;DHT22;4761;49.490;10.908;2022-07-09T08:50:40;24.40;50.90
9446;DHT22;4761;49.490;10.908;2022-07-09T08:53:05;24.30;50.80
9446;DHT22;4761;49.490;10.908;2022-07-09T08:55:31;24.40;50.80
9446;DHT22;4761;49.490;10.908;2022-07-09T08:57:58;24.40;50.80
9446;DHT22;4761;49.490;10.908;2022-07-09T09:00:23;24.40;50.80
9446;DHT22;4761;49.490;10.908;2022-07-09T09:02:49;24.40;50.80
9446;DHT22;4761;49.490;10.908;2022-07-09T09:05:15;24.40;50.80
9446;DHT22;4761;49.490;10.908;2022-07-09T09:07:41;24.40;50.90
9446;DHT22;4761;49.490;10.908;2022-07-09T09:10:08;24.40;50.80
9446;DHT22;4761;49.490;10.908;2022-07-09T09:12:33;24.40;50.90
9446;DHT22;4761;49.490;10.908;2022-07-09T09:14:59;24.40;51.00
9446;DHT22;4761;49.490;10.908;2022-07-09T09:17:29;24.40;51.00
9446;DHT22;4761;49.490;10.908;2022-07-09T09:19:55;24.40;51.00
9446;DHT22;4761;49.490;10.908;2022-07-09T09:22:21;24.40;51.00
9446;DHT22;4761;49.490;10.908;2022-07-09T09:24:50;24.40;51.00
9446;DHT22;4761;49.490;10.908;2022-07-09T09:27:16;24.40;51.00
9446;DHT22;4761;49.490;10.908;2022-07-09T09:29:51;24.40;51.00
9446;DHT22;4761;49.490;10.908;2022-07-09T09:32:19;24.50;51.00
9446;DHT22;4761;49.490;10.908;2022-07-09T09:34:50;24.50;51.00
9446;DHT22;4761;49.490;10.908;2022-07-09T09:37:25;24.50;50.90
9446;DHT22;4761;49.490;10.908;2022-07-09T09:39:51;24.50;51.00
9446;DHT22;4761;49.490;10.908;2022-07-09T09:42:17;24.50;51.00
9446;DHT22;4761;49.490;10.908;2022-07-09T09:44:43;24.50;50.90
9446;DHT22;4761;49.490;10.908;2022-07-09T09:47:09;24.50;50.90
9446;DHT22;4761;49.490;10.908;2022-07-09T09:49:38;24.40;50.70
9446;DHT22;4761;49.490;10.908;2022-07-09T09:52:10;24.30;50.50
9446;DHT22;4761;49.490;10.908;2022-07-09T09:54:37;24.30;50.10
9446;DHT22;4761;49.490;10.908;2022-07-09T09:57:08;24.30;50.00
9446;DHT22;4761;49.490;10.908;2022-07-09T09:59:42;24.30;49.90
9446;DHT22;4761;49.490;10.908;2022-07-09T10:02:09;24.20;49.90
9446;DHT22;4761;49.490;10.908;2022-07-09T10:04:44;24.20;50.00
9446;DHT22;4761;49.490;10.908;2022-07-09T10:07:14;24.20;49.90
9446;DHT22;4761;49.490;10.908;2022-07-09T10:09:40;24.20;50.00
9446;DHT22;4761;49.490;10.908;2022-07-09T10:12:07;24.20;50.50
9446;DHT22;4761;49.490;10.908;2022-07-09T10:14:37;24.30;50.40
9446;DHT22;4761;49.490;10.908;2022-07-09T10:17:13;24.40;50.50
9446;DHT22;4761;49.490;10.908;2022-07-09T10:19:57;24.40;50.40
9446;DHT22;4761;49.490;10.908;2022-07-09T10:22:37;24.40;50.40
9446;DHT22;4761;49.490;10.908;2022-07-09T10:25:04;24.40;50.50
9446;DHT22;4761;49.490;10.908;2022-07-09T10:27:47;24.40;50.50
9446;DHT22;4761;49.490;10.908;2022-07-09T10:30:32;24.50;50.70
9446;DHT22;4761;49.490;10.908;2022-07-09T10:33:06;24.50;50.80
9446;DHT22;4761;49.490;10.908;2022-07-09T10:36:08;24.50;50.80
9446;DHT22;4761;49.490;10.908;2022-07-09T10:38:36;24.50;51.00
9446;DHT22;4761;49.490;10.908;2022-07-09T10:41:04;24.50;51.10
9446;DHT22;4761;49.490;10.908;2022-07-09T10:43:42;24.50;51.10
9446;DHT22;4761;49.490;10.908;2022-07-09T10:46:13;24.50;51.10
9446;DHT22;4761;49.490;10.908;2022-07-09T10:48:40;24.50;51.10
9446;DHT22;4761;49.490;10.908;2022-07-09T10:51:06;24.50;51.20
9446;DHT22;4761;49.490;10.908;2022-07-09T10:53:32;24.50;51.40
9446;DHT22;4761;49.490;10.908;2022-07-09T10:55:59;24.40;51.30
9446;DHT22;4761;49.490;10.908;2022-07-09T10:58:25;24.50;51.40
9446;DHT22;4761;49.490;10.908;2022-07-09T11:00:59;24.40;51.40
9446;DHT22;4761;49.490;10.908;2022-07-09T11:03:29;24.40;51.40
9446;DHT22;4761;49.490;10.908;2022-07-09T11:05:55;24.50;51.40
9446;DHT22;4761;49.490;10.908;2022-07-09T11:08:21;24.50;51.40
9446;DHT22;4761;49.490;10.908;2022-07-09T11:10:47;24.50;51.40
9446;DHT22;4761;49.490;10.908;2022-07-09T11:13:12;24.50;51.50
9446;DHT22;4761;49.490;10.908;2022-07-09T11:15:38;24.50;51.50
9446;DHT22;4761;49.490;10.908;2022-07-09T11:18:12;24.50;51.50
9446;DHT22;4761;49.490;10.908;2022-07-09T11:20:43;24.50;51.60
9446;DHT22;4761;49.490;10.908;2022-07-09T11:23:14;24.50;51.60
9446;DHT22;4761;49.490;10.908;2022-07-09T11:25:40;24.40;51.60
9446;DHT22;4761;49.490;10.908;2022-07-09T11:28:06;24.50;51.70
9446;DHT22;4761;49.490;10.908;2022-07-09T11:30:33;24.50;51.70
9446;DHT22;4761;49.490;10.908;2022-07-09T11:32:59;24.50;51.80
9446;DHT22;4761;49.490;10.908;2022-07-09T11:35:34;24.40;51.60
9446;DHT22;4761;49.490;10.908;2022-07-09T11:38:02;24.50;51.60
9446;DHT22;4761;49.490;10.908;2022-07-09T11:40:28;24.40;51.50
9446;DHT22;4761;49.490;10.908;2022-07-09T11:42:55;24.40;51.40
9446;DHT22;4761;49.490;10.908;2022-07-09T11:47:47;24.50;51.40
9446;DHT22;4761;49.490;10.908;2022-07-09T11:50:15;24.40;51.40
9446;DHT22;4761;49.490;10.908;2022-07-09T11:52:50;24.40;51.40
9446;DHT22;4761;49.490;10.908;2022-07-09T11:55:18;24.40;51.50
9446;DHT22;4761;49.490;10.908;2022-07-09T11:58:07;24.40;51.60
9446;DHT22;4761;49.490;10.908;2022-07-09T12:00:35;24.40;51.50
9446;DHT22;4761;49.490;10.908;2022-07-09T12:03:00;24.40;51.50
9446;DHT22;4761;49.490;10.908;2022-07-09T12:05:30;24.40;51.50
9446;DHT22;4761;49.490;10.908;2022-07-09T12:07:58;24.40;51.40
9446;DHT22;4761;49.490;10.908;2022-07-09T12:10:29;24.40;51.40
9446;DHT22;4761;49.490;10.908;2022-07-09T12:12:55;24.40;51.50
9446;DHT22;4761;49.490;10.908;2022-07-09T12:15:20;24.40;51.50
9446;DHT22;4761;49.490;10.908;2022-07-09T12:17:54;24.40;51.40
9446;DHT22;4761;49.490;10.908;2022-07-09T12:20:23;24.40;51.40
9446;DHT22;4761;49.490;10.908;2022-07-09T12:22:50;24.30;51.30
9446;DHT22;4761;49.490;10.908;2022-07-09T12:25:16;24.40;51.40
9446;DHT22;4761;49.490;10.908;2022-07-09T12:27:41;24.40;51.40
9446;DHT22;4761;49.490;10.908;2022-07-09T12:30:07;24.40;51.20
9446;DHT22;4761;49.490;10.908;2022-07-09T12:32:33;24.40;51.20
9446;DHT22;4761;49.490;10.908;2022-07-09T12:35:00;24.40;51.40
9446;DHT22;4761;49.490;10.908;2022-07-09T12:37:26;24.40;51.20
9446;DHT22;4761;49.490;10.908;2022-07-09T12:39:51;24.40;51.20
9446;DHT22;4761;49.490;10.908;2022-07-09T12:42:18;24.40;51.70
9446;DHT22;4761;49.490;10.908;2022-07-09T12:44:44;24.40;51.20
9446;DHT22;4761;49.490;10.908;2022-07-09T12:47:09;24.40;51.20
9446;DHT22;4761;49.490;10.908;2022-07-09T12:49:35;24.40;51.20
9446;DHT22;4761;49.490;10.908;2022-07-09T12:52:01;24.40;51.10
9446;DHT22;4761;49.490;10.908;2022-07-09T12:54:26;24.40;51.00
9446;DHT22;4761;49.490;10.908;2022-07-09T12:56:52;24.40;51.00
9446;DHT22;4761;49.490;10.908;2022-07-09T12:59:18;24.40;51.00
9446;DHT22;4761;49.490;10.908;2022-07-09T13:01:44;24.40;51.00
9446;DHT22;4761;49.490;10.908;2022-07-09T13:04:09;24.40;51.00
9446;DHT22;4761;49.490;10.908;2022-07-09T13:06:35;24.40;51.00
9446;DHT22;4761;49.490;10.908;2022-07-09T13:09:02;24.30;51.80
9446;DHT22;4761;49.490;10.908;2022-07-09T13:11:28;24.40;52.30
9446;DHT22;4761;49.490;10.908;2022-07-09T13:13:54;24.40;52.20
9446;DHT22;4761;49.490;10.908;2022-07-09T13:16:20;24.40;52.40
9446;DHT22;4761;49.490;10.908;2022-07-09T13:18:45;24.40;52.20
9446;DHT22;4761;49.490;10.908;2022-07-09T13:21:11;24.40;52.20
9446;DHT22;4761;49.490;10.908;2022-07-09T13:23:37;24.40;51.90
9446;DHT22;4761;49.490;10.908;2022-07-09T13:26:02;24.40;51.90
9446;DHT22;4761;49.490;10.908;2022-07-09T13:28:28;24.50;52.00
9446;DHT22;4761;49.490;10.908;2022-07-09T13:30:54;24.50;51.90
9446;DHT22;4761;49.490;10.908;2022-07-09T13:33:19;24.50;51.90
9446;DHT22;4761;49.490;10.908;2022-07-09T13:35:45;24.60;52.10
9446;DHT22;4761;49.490;10.908;2022-07-09T13:38:11;24.70;52.10
9446;DHT22;4761;49.490;10.908;2022-07-09T13:40:36;24.80;52.00
9446;DHT22;4761;49.490;10.908;2022-07-09T13:43:02;24.90;52.00
9446;DHT22;4761;49.490;10.908;2022-07-09T13:45:28;25.00;52.00
9446;DHT22;4761;49.490;10.908;2022-07-09T13:47:54;25.00;52.00
9446;DHT22;4761;49.490;10.908;2022-07-09T13:50:20;25.10;52.00
9446;DHT22;4761;49.490;10.908;2022-07-09T13:52:46;25.10;52.30
9446;DHT22;4761;49.490;10.908;2022-07-09T13:55:12;25.20;52.10
9446;DHT22;4761;49.490;10.908;2022-07-09T13:57:37;25.20;52.20
9446;DHT22;4761;49.490;10.908;2022-07-09T14:00:05;25.20;52.30
9446;DHT22;4761;49.490;10.908;2022-07-09T14:02:31;25.20;52.30
9446;DHT22;4761;49.490;10.908;2022-07-09T14:04:59;25.30;52.40
9446;DHT22;4761;49.490;10.908;2022-07-09T14:07:25;25.30;52.40
9446;DHT22;4761;49.490;10.908;2022-07-09T14:09:50;25.30;52.60
9446;DHT22;4761;49.490;10.908;2022-07-09T14:12:16;25.30;52.60
9446;DHT22;4761;49.490;10.908;2022-07-09T14:14:42;25.30;52.60
9446;DHT22;4761;49.490;10.908;2022-07-09T14:17:08;25.30;52.60
9446;DHT22;4761;49.490;10.908;2022-07-09T14:19:34;25.40;52.80
9446;DHT22;4761;49.490;10.908;2022-07-09T14:22:00;25.40;52.90
9446;DHT22;4761;49.490;10.908;2022-07-09T14:24:25;25.40;52.80
9446;DHT22;4761;49.490;10.908;2022-07-09T14:26:51;25.40;52.80
9446;DHT22;4761;49.490;10.908;2022-07-09T14:29:16;25.30;52.70
9446;DHT22;4761;49.490;10.908;2022-07-09T14:31:42;25.40;52.80
9446;DHT22;4761;49.490;10.908;2022-07-09T14:34:08;25.40;52.80
9446;DHT22;4761;49.490;10.908;2022-07-09T14:36:33;25.40;52.80
9446;DHT22;4761;49.490;10.908;2022-07-09T14:38:59;25.40;52.80
9446;DHT22;4761;49.490;10.908;2022-07-09T14:41:25;25.40;52.90
9446;DHT22;4761;49.490;10.908;2022-07-09T14:43:51;25.50;53.00
9446;DHT22;4761;49.490;10.908;2022-07-09T14:46:17;25.50;52.80
9446;DHT22;4761;49.490;10.908;2022-07-09T14:48:42;25.60;52.80
9446;DHT22;4761;49.490;10.908;2022-07-09T14:51:08;25.60;52.70
9446;DHT22;4761;49.490;10.908;2022-07-09T14:53:34;25.60;52.80
9446;DHT22;4761;49.490;10.908;2022-07-09T14:55:59;25.60;52.70
9446;DHT22;4761;49.490;10.908;2022-07-09T14:58:26;25.70;52.70
9446;DHT22;4761;49.490;10.908;2022-07-09T15:00:52;25.70;52.70
9446;DHT22;4761;49.490;10.908;2022-07-09T15:03:18;25.70;52.70
9446;DHT22;4761;49.490;10.908;2022-07-09T15:05:44;25.80;52.80
9446;DHT22;4761;49.490;10.908;2022-07-09T15:08:10;25.80;52.80
9446;DHT22;4761;49.490;10.908;2022-07-09T15:10:35;25.80;52.80
9446;DHT22;4761;49.490;10.908;2022-07-09T15:13:03;25.80;52.80
9446;DHT22;4761;49.490;10.908;2022-07-09T15:15:31;25.80;52.70
9446;DHT22;4761;49.490;10.908;2022-07-09T15:17:56;25.80;52.70
9446;DHT22;4761;49.490;10.908;2022-07-09T15:20:22;25.70;52.10
9446;DHT22;4761;49.490;10.908;2022-07-09T15:22:47;25.50;53.70
9446;DHT22;4761;49.490;10.908;2022-07-09T15:25:13;25.40;51.10
9446;DHT22;4761;49.490;10.908;2022-07-09T15:27:39;25.40;51.00
9446;DHT22;4761;49.490;10.908;2022-07-09T15:30:06;25.40;51.00
9446;DHT22;4761;49.490;10.908;2022-07-09T15:32:31;25.30;51.00
9446;DHT22;4761;49.490;10.908;2022-07-09T15:34:57;25.30;50.90
9446;DHT22;4761;49.490;10.908;2022-07-09T15:37:23;25.30;50.90
9446;DHT22;4761;49.490;10.908;2022-07-09T15:39:49;25.20;50.90
9446;DHT22;4761;49.490;10.908;2022-07-09T15:42:15;25.20;50.80
9446;DHT22;4761;49.490;10.908;2022-07-09T15:44:41;25.20;51.40